Manson, WA (98831)

9:36 PM PDT on August 27, 2014 (GMT -0700)
The Highlands | Change Station
CLOSE
Current Station
Personal Weather Station
Location: Chelan, WA
Elevation: 1610 ft
Nearby Weather Stations

Elev 1610 ft 47.86 °N, 120.04 °W | Updated 4 minutes ago

Clear
Clear
80.0 °F
Feels Like 80 °F
N
0.0
Wind Variable Wind from WSW
Gusts 3.0 mph

Today
High -- | Low -- °F
--% Chance of Precip.
Yesterday
High -- | Low -- °F
Precip. -- in
6:12 AM 7:51 PM
Waxing Crescent, 6% visible
Pressure 29.88 in
Visibility 10.0 miles
Clouds Clear
Heat Index 80 °F
Dew Point 57 °F
Humidity 45%
Rainfall 0.00 in
Snow Depth Not available.
UV 0 out of 12
Pollen 4.80 out of 12
Air Quality Not available.
Flu Activity Not available.
METAR KEAT 280355Z AUTO 29011KT 10SM CLR 28/10 A2992 RMK AO2 PK WND 31027/0256 SLP119 T02830100

More Conditions Fewer Conditions

Pressure 29.88 in
Visibility 10.0 miles
Clouds Clear
Heat Index 80 °F
Dew Point 57 °F
Humidity 45%
Rainfall 0.00 in
Snow Depth Not available.
UV 0 out of 12
Pollen 4.80 out of 12
Air Quality Not available.
Flu Activity Not available.
METAR KEAT 280355Z AUTO 29011KT 10SM CLR 28/10 A2992 RMK AO2 PK WND 31027/0256 SLP119 T02830100

More Conditions Fewer Conditions

10-Day Weather Forecast

Almanac

Astronomy

Aug. 27, 2014 Rise Set
Actual Time 6:12 AM PDT 7:51 PM PDT
Civil Twilight 5:39 AM PDT 8:23 PM PDT
Nautical Twilight 4:59 AM PDT 9:03 PM PDT
Astronomical Twilight 4:16 AM PDT 9:46 PM PDT
Moon 8:25 AM PDT (8/27) 8:31 PM PDT (8/27)
Length of Visible Light 14h 44m
Length of Day
13h 38m
Tomorrow will be 3m 18s shorter.
Waxing Crescent, 6% of the Moon is Illuminated
Aug 28
Waxing Crescent
Sep 2
First Quarter
Sep 8
Full
Sep 15
Last Quarter
Sep 24
New

Today's Extremes

State Highs State Lows

Community

WunderPhotos

Upload Photos

1,747,907 photos uploaded!

Nearby

Snow Depth

Station Depth Elevation
Lyman Lake 0 in 5900 ft
Stevens Pass 0 in 4070 ft
Grouse Camp 0 in 5380 ft
Trough 0 in 5300 ft
Rainy Pass 0 in 4780 ft

Earthquake Activity

City Distance Mag. Time & Date
No recent earthquake activity has been reported nearby.
Minimum magnitude displayed is 2.5.

Coastal Water Temperatures

Place Temperature
No Stations Reporting

Nearby Weather Stations